Time;durP1;ratioP1;P1;durP2;ratioP2;P2;SDS_P1;SDS_P2;PMS_P1;PMS_P2;Temp;Humidity;BMP_temperature;BMP_pressure;BME280_temperature;BME280_humidity;BME280_pressure;Samples;Min_cycle;Max_cycle;Signal;HPM_P1;HPM_P2
2023/01/10 00:00:35;;;;;;;1.77;0.85;;;17.80;73.80;;;;;;5006123;28;45241;-72
2023/01/10 00:03:03;;;;;;;2.97;0.70;;;17.90;73.60;;;;;;5006166;28;45283;-73
2023/01/10 00:05:31;;;;;;;0.80;0.63;;;17.80;73.50;;;;;;5006317;28;47059;-72
2023/01/10 00:07:58;;;;;;;1.13;0.75;;;17.80;73.80;;;;;;5005793;28;45389;-73
2023/01/10 00:10:25;;;;;;;2.17;0.75;;;17.80;74.00;;;;;;5005927;28;45141;-73
2023/01/10 00:16:15;;;;;;;1.95;0.75;;;17.80;75.00;;;;;;5005485;28;45238;-73
2023/01/10 00:18:42;;;;;;;1.90;0.80;;;17.90;75.50;;;;;;5006061;28;45595;-73
2023/01/10 00:21:09;;;;;;;1.90;0.85;;;17.80;75.00;;;;;;5006091;28;45140;-73
2023/01/10 00:23:36;;;;;;;1.42;0.70;;;17.90;75.30;;;;;;5006739;28;45378;-72
2023/01/10 00:26:02;;;;;;;3.35;0.75;;;17.90;75.40;;;;;;5005907;28;46656;-73
2023/01/10 00:28:33;;;;;;;1.73;0.80;;;17.90;75.40;;;;;;5005537;28;45243;-73
2023/01/10 00:34:23;;;;;;;1.75;0.80;;;17.90;75.30;;;;;;5003004;28;45129;-73
2023/01/10 00:40:12;;;;;;;2.10;0.98;;;17.90;74.90;;;;;;5002800;28;45180;-73
2023/01/10 00:45:25;;;;;;;1.75;0.80;;;17.80;73.80;;;;;;5006025;28;45282;-73
2023/01/10 00:47:52;;;;;;;1.55;0.60;;;17.80;73.80;;;;;;5005503;28;45333;-73
2023/01/10 00:50:20;;;;;;;1.83;0.70;;;17.90;73.80;;;;;;5005290;28;45179;-73
2023/01/10 00:52:47;;;;;;;3.55;0.70;;;17.80;73.80;;;;;;5005513;28;45082;-73
2023/01/10 00:55:14;;;;;;;3.28;0.82;;;17.80;73.70;;;;;;5005616;28;45597;-73
2023/01/10 00:57:41;;;;;;;2.08;0.80;;;17.80;73.50;;;;;;5005490;28;46980;-73
2023/01/10 01:00:09;;;;;;;2.05;0.70;;;17.80;73.30;;;;;;5005407;28;45239;-73
2023/01/10 01:06:04;;;;;;;1.73;0.55;;;17.80;73.40;;;;;;5002562;28;45232;-73
2023/01/10 01:08:31;;;;;;;2.00;0.75;;;17.80;72.70;;;;;;4987882;28;46299;-73
2023/01/10 01:10:58;;;;;;;2.17;0.85;;;17.80;73.00;;;;;;5006201;28;46145;-73
2023/01/10 01:13:25;;;;;;;3.28;1.00;;;17.80;73.50;;;;;;5008726;28;45200;-73
2023/01/10 01:15:52;;;;;;;1.33;0.80;;;17.90;74.10;;;;;;5009328;28;45747;-72
2023/01/10 01:18:21;;;;;;;1.27;0.60;;;17.80;74.40;;;;;;5008472;28;47357;-73
2023/01/10 01:20:48;;;;;;;2.30;0.68;;;17.90;74.80;;;;;;5008759;28;45385;-73
2023/01/10 01:23:16;;;;;;;1.65;0.73;;;17.90;74.70;;;;;;5008507;28;45136;-73
2023/01/10 01:25:43;;;;;;;1.98;1.00;;;17.80;74.70;;;;;;5008758;28;45289;-73
2023/01/10 01:28:12;;;;;;;1.65;0.68;;;17.80;74.60;;;;;;5008402;28;47816;-72
2023/01/10 01:34:00;;;;;;;1.67;0.80;;;17.80;74.40;;;;;;5005523;28;45176;-73
2023/01/10 01:36:27;;;;;;;1.65;0.65;;;17.90;74.50;;;;;;5008808;28;45240;-73
2023/01/10 01:38:55;;;;;;;2.17;0.80;;;17.80;74.20;;;;;;5008030;28;45729;-73
2023/01/10 01:44:10;;;;;;;1.05;0.60;;;17.80;73.30;;;;;;5008891;28;45254;-73
2023/01/10 01:49:59;;;;;;;1.85;0.80;;;17.80;72.90;;;;;;5005098;28;45105;-72
2023/01/10 01:52:33;;;;;;;2.45;0.80;;;17.80;72.80;;;;;;5007936;28;45350;-73
2023/01/10 01:58:28;;;;;;;4.32;0.98;;;17.80;72.40;;;;;;5005207;28;45223;-73
2023/01/10 02:00:57;;;;;;;2.40;0.80;;;17.80;72.30;;;;;;5007694;28;45244;-73
2023/01/10 02:03:24;;;;;;;2.83;0.80;;;17.80;72.20;;;;;;5007706;28;45366;-73
2023/01/10 02:05:51;;;;;;;3.03;1.02;;;17.80;72.20;;;;;;5008543;28;45323;-71
2023/01/10 02:08:18;;;;;;;2.88;0.95;;;17.80;71.70;;;;;;5008163;28;45445;-72
2023/01/10 02:10:51;;;;;;;2.58;0.90;;;17.80;72.10;;;;;;5007514;28;45732;-72
2023/01/10 02:13:21;;;;;;;3.65;0.80;;;17.80;72.00;;;;;;5008246;28;45228;-73
2023/01/10 02:15:49;;;;;;;2.28;0.85;;;17.80;72.60;;;;;;5007886;28;45082;-72
2023/01/10 02:18:16;;;;;;;1.33;0.63;;;17.80;72.70;;;;;;5007476;28;45275;-72
2023/01/10 02:20:56;;;;;;;2.38;0.88;;;17.90;73.70;;;;;;5007326;28;48217;-73
2023/01/10 02:24:00;;;;;;;1.60;0.60;;;17.80;73.50;;;;;;5007056;28;45145;-72
2023/01/10 02:26:49;;;;;;;1.90;0.70;;;17.80;73.60;;;;;;5007470;28;45157;-72
2023/01/10 02:29:52;;;;;;;3.55;0.60;;;17.90;74.70;;;;;;5007627;28;45303;-72
2023/01/10 02:32:35;;;;;;;2.67;0.70;;;17.90;73.60;;;;;;5007763;28;45680;-72
2023/01/10 02:38:40;;;;;;;2.58;1.00;;;17.90;73.80;;;;;;5004569;28;45335;-72
2023/01/10 02:41:16;;;;;;;2.42;0.90;;;17.90;73.70;;;;;;5007544;28;45197;-72
2023/01/10 02:43:48;;;;;;;1.65;0.52;;;17.90;73.20;;;;;;5007010;28;46556;-72
2023/01/10 02:46:20;;;;;;;2.85;0.77;;;17.90;73.00;;;;;;5007322;28;45287;-72
2023/01/10 02:48:48;;;;;;;2.75;0.93;;;17.90;72.50;;;;;;5007395;28;45373;-73
2023/01/10 02:51:20;;;;;;;3.65;0.70;;;17.90;72.50;;;;;;5007396;28;45265;-73
2023/01/10 02:53:51;;;;;;;1.88;0.80;;;17.80;72.50;;;;;;5004373;28;45428;-73
2023/01/10 02:56:51;;;;;;;3.90;0.90;;;17.80;72.50;;;;;;5007008;28;45204;-73
2023/01/10 02:59:43;;;;;;;2.97;1.08;;;17.80;72.30;;;;;;5003875;28;45282;-71
2023/01/10 03:02:20;;;;;;;2.95;1.00;;;17.80;72.10;;;;;;4988405;28;45399;-73
2023/01/10 03:04:55;;;;;;;2.53;0.82;;;17.80;71.70;;;;;;5006978;28;47014;-73
2023/01/10 03:07:29;;;;;;;2.88;0.80;;;17.80;71.30;;;;;;5007030;28;45119;-73
2023/01/10 03:10:01;;;;;;;2.70;0.90;;;17.80;72.10;;;;;;5007033;28;45381;-73
2023/01/10 03:12:34;;;;;;;3.97;1.00;;;17.80;70.90;;;;;;5007030;28;45192;-73
2023/01/10 03:15:05;;;;;;;3.38;0.95;;;17.80;71.40;;;;;;5006990;28;48020;-73
2023/01/10 03:17:33;;;;;;;2.42;0.73;;;17.80;71.90;;;;;;5006348;28;45241;-73
2023/01/10 03:20:05;;;;;;;2.33;0.88;;;17.80;72.70;;;;;;5006889;28;45133;-73
2023/01/10 03:22:37;;;;;;;2.63;1.00;;;17.80;72.80;;;;;;5006627;28;45248;-73
2023/01/10 03:25:07;;;;;;;1.98;0.63;;;17.80;72.60;;;;;;5006688;28;47336;-73
2023/01/10 03:27:40;;;;;;;1.75;0.88;;;17.80;72.70;;;;;;5006703;28;45145;-72
2023/01/10 03:30:18;;;;;;;2.22;0.65;;;17.80;72.80;;;;;;5006532;28;45263;-73
2023/01/10 03:32:45;;;;;;;2.47;0.70;;;17.80;72.80;;;;;;5006567;28;45624;-73
2023/01/10 03:38:41;;;;;;;2.33;0.90;;;17.90;72.90;;;;;;5003575;28;45156;-73
2023/01/10 03:41:12;;;;;;;2.78;1.15;;;17.80;72.70;;;;;;5006987;28;45308;-72
2023/01/10 03:46:35;;;;;;;2.50;1.02;;;17.80;71.90;;;;;;5003614;28;45883;-73
2023/01/10 03:52:25;;;;;;;2.53;1.02;;;17.80;71.90;;;;;;5004095;28;45236;-72
2023/01/10 03:54:53;;;;;;;1.92;0.75;;;17.80;71.50;;;;;;5006456;28;45566;-73
2023/01/10 03:57:23;;;;;;;3.15;0.90;;;17.80;71.80;;;;;;5006141;28;46633;-73
2023/01/10 03:59:53;;;;;;;2.60;0.88;;;17.80;71.30;;;;;;5006177;28;45318;-73
2023/01/10 04:02:19;;;;;;;1.95;0.80;;;17.80;71.40;;;;;;5006376;28;45223;-73
2023/01/10 04:04:46;;;;;;;4.03;0.98;;;17.80;71.20;;;;;;5006519;28;45263;-73
2023/01/10 04:07:13;;;;;;;3.38;0.93;;;17.80;71.00;;;;;;5006389;28;47034;-73
2023/01/10 04:13:03;;;;;;;2.53;0.85;;;17.80;70.80;;;;;;5003180;28;45243;-73
2023/01/10 04:15:31;;;;;;;2.03;0.70;;;17.80;70.70;;;;;;5006151;28;45378;-72
2023/01/10 04:17:58;;;;;;;1.77;0.70;;;17.80;71.10;;;;;;5005567;28;47501;-72
2023/01/10 04:20:26;;;;;;;1.85;0.82;;;17.80;71.20;;;;;;5005605;28;46017;-72
2023/01/10 04:22:53;;;;;;;2.45;1.02;;;17.80;71.50;;;;;;5005884;28;45328;-72
2023/01/10 04:25:20;;;;;;;1.50;0.70;;;17.80;71.40;;;;;;5005793;28;45555;-72
2023/01/10 04:27:49;;;;;;;3.08;0.70;;;17.70;71.40;;;;;;5005615;28;46591;-73
2023/01/10 04:30:19;;;;;;;2.80;0.90;;;17.70;71.30;;;;;;5005623;28;45312;-72
2023/01/10 04:32:47;;;;;;;3.45;0.85;;;17.70;70.90;;;;;;5005901;28;45212;-73
2023/01/10 04:35:14;;;;;;;3.65;1.10;;;17.70;70.90;;;;;;5005943;28;45118;-73
2023/01/10 04:37:41;;;;;;;2.13;1.00;;;17.70;70.70;;;;;;5005473;28;47468;-73
2023/01/10 04:40:09;;;;;;;5.55;1.20;;;17.70;70.60;;;;;;5005648;28;45236;-73
2023/01/10 04:45:59;;;;;;;4.07;1.17;;;17.70;69.90;;;;;;5005531;28;45154;-72
2023/01/10 04:48:26;;;;;;;2.85;1.00;;;17.70;69.10;;;;;;5008745;28;46432;-73
2023/01/10 04:50:54;;;;;;;4.20;1.15;;;17.70;68.70;;;;;;5009108;28;45201;-72
2023/01/10 04:53:21;;;;;;;3.83;1.20;;;17.70;68.00;;;;;;5008893;28;45130;-73
2023/01/10 04:55:48;;;;;;;5.50;1.40;;;17.70;68.00;;;;;;5008976;28;45605;-73
2023/01/10 04:58:15;;;;;;;4.43;1.25;;;17.70;67.30;;;;;;5008688;28;46657;-73
2023/01/10 05:04:06;;;;;;;8.73;1.80;;;17.70;66.20;;;;;;5005993;28;45224;-72
2023/01/10 05:06:33;;;;;;;3.53;1.17;;;17.70;65.60;;;;;;5008951;28;45230;-72
2023/01/10 05:09:00;;;;;;;4.25;1.27;;;17.70;65.70;;;;;;5008410;28;46604;-72
2023/01/10 05:11:27;;;;;;;2.63;1.02;;;17.70;65.30;;;;;;5008560;28;45226;-72
2023/01/10 05:13:53;;;;;;;3.90;1.05;;;17.60;65.20;;;;;;5008671;28;45342;-72
2023/01/10 05:16:20;;;;;;;5.10;1.50;;;17.60;65.40;;;;;;5008471;28;45476;-72
2023/01/10 05:18:47;;;;;;;3.55;1.20;;;17.60;65.90;;;;;;5008742;28;47346;-73
2023/01/10 05:21:15;;;;;;;7.07;1.35;;;17.60;66.90;;;;;;5008358;28;45924;-73
2023/01/10 05:23:42;;;;;;;4.40;1.23;;;17.60;67.00;;;;;;5008311;28;45210;-72
2023/01/10 05:26:10;;;;;;;8.15;1.60;;;17.60;67.30;;;;;;5008447;28;45513;-72
2023/01/10 05:28:37;;;;;;;4.63;1.30;;;17.60;67.50;;;;;;5008279;28;47135;-72
2023/01/10 05:31:06;;;;;;;5.45;1.40;;;17.60;67.50;;;;;;5008139;28;45212;-73
2023/01/10 05:33:33;;;;;;;4.25;1.35;;;17.60;67.30;;;;;;5008577;28;45078;-73
2023/01/10 05:36:01;;;;;;;4.63;1.50;;;17.60;67.20;;;;;;5008530;28;45211;-72
2023/01/10 05:38:31;;;;;;;4.00;1.25;;;17.60;67.10;;;;;;5008268;28;47045;-72
2023/01/10 05:40:59;;;;;;;4.95;1.65;;;17.60;67.10;;;;;;5007809;28;45259;-72
2023/01/10 05:43:27;;;;;;;8.27;1.45;;;17.60;66.60;;;;;;5007837;28;45394;-72
2023/01/10 05:45:54;;;;;;;4.70;1.27;;;17.50;66.50;;;;;;5008328;28;45165;-72
2023/01/10 05:48:21;;;;;;;4.85;1.70;;;17.50;65.90;;;;;;5007864;28;45469;-72
2023/01/10 05:50:49;;;;;;;3.53;1.40;;;17.50;65.20;;;;;;5007954;28;45128;-72
2023/01/10 05:53:17;;;;;;;5.45;1.45;;;17.50;65.30;;;;;;5008146;28;45304;-73
2023/01/10 05:55:52;;;;;;;6.00;1.00;;;17.50;64.90;;;;;;5008109;28;45556;-72
2023/01/10 05:58:18;;;;;;;4.95;1.40;;;17.60;64.60;;;;;;5007520;28;45597;-72
2023/01/10 06:00:46;;;;;;;3.97;1.40;;;17.50;64.10;;;;;;5008102;28;45157;-72
2023/01/10 06:03:13;;;;;;;4.35;1.20;;;17.50;63.80;;;;;;5007867;28;45243;-72
2023/01/10 06:05:40;;;;;;;4.90;1.60;;;17.50;63.20;;;;;;5007609;28;45550;-72
2023/01/10 06:08:06;;;;;;;5.80;1.50;;;17.50;62.80;;;;;;5007248;28;46305;-72
2023/01/10 06:10:33;;;;;;;4.10;1.10;;;17.50;62.90;;;;;;5007369;28;45232;-72
2023/01/10 06:13:01;;;;;;;4.47;1.80;;;17.50;62.70;;;;;;5007770;28;45192;-72
2023/01/10 06:15:28;;;;;;;5.60;1.58;;;17.50;62.70;;;;;;5007698;28;45560;-72
2023/01/10 06:17:55;;;;;;;6.63;1.98;;;17.50;62.50;;;;;;5006547;28;45488;-72
2023/01/10 06:20:22;;;;;;;7.47;1.58;;;17.50;63.30;;;;;;5017776;28;45416;-71
2023/01/10 06:22:48;;;;;;;6.18;1.65;;;17.50;64.10;;;;;;5026303;28;45286;-72
2023/01/10 06:25:15;;;;;;;5.85;1.80;;;17.50;64.30;;;;;;5026517;28;45460;-73
2023/01/10 06:27:43;;;;;;;4.22;1.27;;;17.60;64.60;;;;;;5026304;28;47382;-73
2023/01/10 06:30:14;;;;;;;5.30;1.48;;;17.50;64.80;;;;;;5026686;28;45247;-72
2023/01/10 06:32:42;;;;;;;4.70;1.55;;;17.60;65.00;;;;;;5026659;28;45262;-73
2023/01/10 06:35:09;;;;;;;7.57;1.83;;;17.60;64.80;;;;;;5026169;28;45647;-73
2023/01/10 06:37:36;;;;;;;5.30;1.35;;;17.60;65.00;;;;;;5026300;28;46603;-72
2023/01/10 06:40:03;;;;;;;6.82;1.45;;;17.60;65.90;;;;;;5026438;28;45144;-72
2023/01/10 06:42:30;;;;;;;5.82;1.80;;;17.50;63.10;;;;;;5026420;28;45361;-73
2023/01/10 06:44:57;;;;;;;6.55;1.75;;;17.50;61.90;;;;;;5026447;28;45576;-73
2023/01/10 06:47:25;;;;;;;7.68;1.90;;;17.50;61.30;;;;;;5026244;28;46551;-73
2023/01/10 06:49:52;;;;;;;6.90;1.80;;;17.50;61.00;;;;;;5026420;28;45811;-73
2023/01/10 06:53:01;;;;;;;6.82;1.70;;;17.50;60.70;;;;;;5026205;28;45255;-73
2023/01/10 06:55:29;;;;;;;5.38;1.67;;;17.50;60.60;;;;;;5039116;28;45371;-73
2023/01/10 06:57:56;;;;;;;8.20;2.00;;;17.50;60.70;;;;;;5045895;28;48050;-73
2023/01/10 07:00:24;;;;;;;6.13;1.80;;;17.40;60.00;;;;;;5046553;28;45271;-73
2023/01/10 07:02:53;;;;;;;6.20;1.92;;;17.40;60.00;;;;;;5046643;28;45339;-73
2023/01/10 07:05:20;;;;;;;7.50;2.15;;;17.40;60.00;;;;;;5045981;28;45243;-72
2023/01/10 07:07:47;;;;;;;6.80;1.55;;;17.40;60.20;;;;;;5044828;28;47057;-72
2023/01/10 07:10:13;;;;;;;6.07;1.50;;;17.30;60.10;;;;;;5042981;28;45419;-71
2023/01/10 07:12:49;;;;;;;7.60;1.35;;;17.30;60.00;;;;;;5024221;28;45403;-72
2023/01/10 07:15:16;;;;;;;4.35;1.65;;;17.30;59.50;;;;;;5024426;28;45266;-72
2023/01/10 07:17:42;;;;;;;6.60;1.70;;;17.30;60.00;;;;;;5024921;28;47550;-72
2023/01/10 07:20:12;;;;;;;7.68;2.05;;;17.30;59.80;;;;;;5025287;28;45207;-72
2023/01/10 07:22:39;;;;;;;7.20;1.90;;;17.30;61.20;;;;;;5025752;28;45197;-71
2023/01/10 07:25:06;;;;;;;7.05;1.98;;;17.30;61.50;;;;;;5025725;28;45491;-72
2023/01/10 07:27:34;;;;;;;6.68;1.63;;;17.40;61.70;;;;;;5020560;28;46259;-73
2023/01/10 07:30:07;;;;;;;6.00;1.63;;;17.40;61.90;;;;;;5005631;28;45722;-82
2023/01/10 07:32:34;;;;;;;6.82;2.00;;;17.40;61.80;;;;;;5022345;28;45407;-72
2023/01/10 07:35:01;;;;;;;8.93;1.73;;;17.50;63.40;;;;;;5026060;28;45195;-72
2023/01/10 07:37:29;;;;;;;6.72;1.85;;;17.60;63.40;;;;;;5025685;28;45393;-72
2023/01/10 07:39:56;;;;;;;9.90;2.25;;;17.60;63.30;;;;;;5025242;28;45323;-72
2023/01/10 07:42:23;;;;;;;6.47;1.58;;;17.60;63.20;;;;;;5024560;28;45272;-72
2023/01/10 07:44:50;;;;;;;4.78;1.40;;;17.60;63.10;;;;;;5025031;28;45333;-73
2023/01/10 07:47:17;;;;;;;6.97;1.60;;;17.60;63.20;;;;;;5025230;28;47401;-72
2023/01/10 07:49:44;;;;;;;4.15;1.55;;;17.60;63.10;;;;;;5025452;28;45235;-72
2023/01/10 07:52:10;;;;;;;7.07;1.92;;;17.50;62.80;;;;;;5025295;28;45290;-72
2023/01/10 07:54:39;;;;;;;5.88;1.60;;;17.50;62.90;;;;;;5025346;28;45509;-72
2023/01/10 07:57:05;;;;;;;7.30;1.60;;;17.50;62.90;;;;;;5024902;28;45282;-73
2023/01/10 07:59:41;;;;;;;6.75;1.92;;;17.50;63.00;;;;;;5025207;28;45306;-72
2023/01/10 08:02:10;;;;;;;3.53;1.20;;;17.50;63.00;;;;;;5024900;28;45321;-72
2023/01/10 08:04:37;;;;;;;4.60;1.52;;;17.50;63.20;;;;;;5025151;28;45319;-72
2023/01/10 08:07:04;;;;;;;5.85;1.70;;;17.50;63.40;;;;;;5025113;28;48155;-72
2023/01/10 08:09:31;;;;;;;6.03;1.35;;;17.50;63.30;;;;;;5024959;28;45337;-72
2023/01/10 08:11:59;;;;;;;6.28;1.58;;;17.50;63.10;;;;;;5025191;28;45415;-73
2023/01/10 08:14:26;;;;;;;3.90;1.15;;;17.50;63.20;;;;;;5025262;28;45565;-70
2023/01/10 08:16:53;;;;;;;5.30;1.48;;;17.60;63.40;;;;;;5024178;28;46589;-72
2023/01/10 08:19:19;;;;;;;4.65;1.33;;;17.60;63.40;;;;;;5025211;28;45378;-73
2023/01/10 08:21:46;;;;;;;5.60;2.40;;;17.50;63.20;;;;;;5029026;28;45212;-72
2023/01/10 08:24:13;;;;;;;6.40;1.70;;;17.60;63.70;;;;;;5029103;28;45557;-72
2023/01/10 08:26:40;;;;;;;3.78;1.35;;;17.60;63.80;;;;;;5028704;28;47523;-72
2023/01/10 08:29:08;;;;;;;3.05;1.13;;;17.60;63.80;;;;;;5029060;28;45323;-72
2023/01/10 08:31:35;;;;;;;4.20;1.40;;;17.60;63.90;;;;;;5028958;28;45154;-72
2023/01/10 08:34:01;;;;;;;4.38;1.40;;;17.60;63.70;;;;;;5029248;28;45544;-72
2023/01/10 08:36:28;;;;;;;4.18;1.45;;;17.60;63.80;;;;;;5028726;28;48044;-72
2023/01/10 08:38:55;;;;;;;6.40;1.77;;;17.70;64.00;;;;;;5029039;28;45653;-73
2023/01/10 08:41:22;;;;;;;5.30;1.20;;;17.70;64.20;;;;;;5028938;28;45089;-72
2023/01/10 08:43:49;;;;;;;5.07;1.10;;;17.70;64.20;;;;;;5028949;28;45125;-73
2023/01/10 08:46:19;;;;;;;7.85;1.50;;;17.70;64.20;;;;;;5028540;28;45492;-72
2023/01/10 08:48:46;;;;;;;2.92;0.80;;;17.70;64.30;;;;;;5028917;28;45291;-73
2023/01/10 08:51:12;;;;;;;3.58;1.42;;;17.70;64.30;;;;;;5028703;28;45216;-72
2023/01/10 08:53:39;;;;;;;4.80;1.20;;;17.70;64.30;;;;;;5028272;28;45240;-72
2023/01/10 08:59:54;;;;;;;4.50;1.40;;;17.60;64.30;;;;;;5025740;28;45277;-72
2023/01/10 09:02:22;;;;;;;5.43;1.55;;;17.60;64.40;;;;;;5028388;28;45215;-72
2023/01/10 09:04:49;;;;;;;3.35;0.88;;;17.60;64.50;;;;;;5028521;28;45113;-72
2023/01/10 09:07:16;;;;;;;4.53;1.50;;;17.60;65.40;;;;;;5028461;28;46558;-71
2023/01/10 09:09:43;;;;;;;3.65;1.40;;;17.60;64.30;;;;;;5028635;28;45527;-72
2023/01/10 09:14:51;;;;;;;3.67;1.38;;;17.60;64.30;;;;;;5027319;28;45084;-73
2023/01/10 09:17:17;;;;;;;3.10;1.33;;;17.60;64.30;;;;;;5027636;28;46699;-73
2023/01/10 09:19:45;;;;;;;5.25;1.33;;;17.60;64.30;;;;;;5028214;28;45361;-72
2023/01/10 09:22:12;;;;;;;5.70;1.52;;;17.60;64.30;;;;;;5028358;28;45163;-72
2023/01/10 09:24:40;;;;;;;7.40;1.13;;;17.60;64.30;;;;;;5028319;28;45444;-72
2023/01/10 09:27:07;;;;;;;5.35;1.20;;;17.60;64.30;;;;;;5027943;28;45632;-72
2023/01/10 09:29:34;;;;;;;3.80;1.17;;;17.70;64.70;;;;;;5028178;28;45300;-72
2023/01/10 09:32:01;;;;;;;4.20;1.40;;;17.70;64.50;;;;;;5026436;28;45222;-72
2023/01/10 09:34:28;;;;;;;3.33;0.80;;;17.70;64.40;;;;;;5028286;28;45478;-74
2023/01/10 09:36:56;;;;;;;6.65;1.60;;;17.70;65.80;;;;;;5027658;28;48007;-73
2023/01/10 09:39:22;;;;;;;5.90;1.58;;;17.80;66.30;;;;;;5027929;28;45325;-73
2023/01/10 09:42:11;;;;;;;8.05;1.50;;;17.80;66.10;;;;;;5028094;28;45188;-73
2023/01/10 09:44:45;;;;;;;2.70;1.00;;;17.90;66.90;;;;;;5028012;28;45064;-74
2023/01/10 09:47:20;;;;;;;5.57;1.45;;;17.90;65.70;;;;;;5027997;28;47473;-73
2023/01/10 09:49:59;;;;;;;3.97;1.35;;;17.90;65.50;;;;;;5028032;28;45156;-74
2023/01/10 09:52:31;;;;;;;5.57;1.15;;;17.90;65.60;;;;;;5024930;28;45144;-74
2023/01/10 09:55:25;;;;;;;5.28;1.48;;;17.90;65.70;;;;;;5027773;28;45501;-74
2023/01/10 09:57:55;;;;;;;7.15;1.80;;;18.00;65.60;;;;;;5027516;28;46590;-73
2023/01/10 10:00:27;;;;;;;5.95;1.40;;;18.00;65.40;;;;;;5028065;28;45306;-73
2023/01/10 10:02:55;;;;;;;6.07;1.30;;;18.00;65.40;;;;;;5024756;28;45313;-73
2023/01/10 10:05:24;;;;;;;5.20;1.38;;;18.00;65.40;;;;;;5026964;28;45545;-72
2023/01/10 10:07:54;;;;;;;11.45;1.40;;;18.00;65.50;;;;;;5026823;28;48624;-73
2023/01/10 10:10:27;;;;;;;5.57;1.40;;;17.90;65.20;;;;;;5027123;28;45424;-73
2023/01/10 10:13:04;;;;;;;4.07;1.55;;;18.00;65.30;;;;;;5027355;28;45077;-73
2023/01/10 10:15:39;;;;;;;6.72;1.45;;;17.90;65.20;;;;;;5027720;28;45200;-73
2023/01/10 10:18:15;;;;;;;3.85;1.20;;;18.00;65.20;;;;;;5026808;28;46776;-73
2023/01/10 10:20:55;;;;;;;2.95;1.20;;;18.00;65.30;;;;;;5027151;28;45203;-73
2023/01/10 10:23:50;;;;;;;5.43;1.50;;;18.00;65.00;;;;;;5027364;28;45248;-74
2023/01/10 10:26:24;;;;;;;4.70;1.42;;;18.00;65.20;;;;;;5019764;28;45150;-74
2023/01/10 10:29:06;;;;;;;4.72;1.40;;;18.00;65.10;;;;;;5027190;28;45474;-74
2023/01/10 10:31:57;;;;;;;6.45;1.35;;;18.00;65.20;;;;;;5027344;28;45845;-73
2023/01/10 10:34:46;;;;;;;6.07;1.80;;;18.00;65.10;;;;;;5026848;28;45266;-73
2023/01/10 10:37:20;;;;;;;5.70;1.65;;;18.00;65.10;;;;;;5027088;28;45221;-73
2023/01/10 10:39:52;;;;;;;5.75;1.48;;;18.00;65.10;;;;;;5026500;28;46437;-73
2023/01/10 10:42:19;;;;;;;7.55;1.70;;;17.90;65.00;;;;;;5026194;28;45372;-73
2023/01/10 10:44:52;;;;;;;8.27;1.52;;;17.90;65.00;;;;;;5026624;28;45184;-73
2023/01/10 10:47:21;;;;;;;3.08;1.00;;;18.00;65.10;;;;;;5026179;28;45361;-73
2023/01/10 10:49:54;;;;;;;4.10;1.33;;;17.90;65.30;;;;;;5024899;28;45515;-72
2023/01/10 10:52:25;;;;;;;4.03;1.13;;;17.90;65.40;;;;;;5018167;28;45710;-72
2023/01/10 10:54:54;;;;;;;3.92;1.33;;;17.90;65.50;;;;;;5026358;28;45348;-73
2023/01/10 11:00:43;;;;;;;6.05;1.48;;;17.90;65.50;;;;;;5023836;28;45368;-75
2023/01/10 11:03:25;;;;;;;6.63;1.70;;;17.90;65.70;;;;;;5026489;28;45226;-74
2023/01/10 11:05:52;;;;;;;4.25;1.50;;;18.00;65.80;;;;;;5026508;28;45374;-75
2023/01/10 11:08:21;;;;;;;7.10;1.67;;;18.00;65.90;;;;;;5026583;28;45421;-74
2023/01/10 11:10:53;;;;;;;5.68;1.60;;;18.00;65.90;;;;;;5026558;28;47024;-74
2023/01/10 11:13:30;;;;;;;5.13;1.30;;;18.00;65.90;;;;;;5026672;28;45133;-74
2023/01/10 11:15:57;;;;;;;3.13;0.98;;;18.00;66.00;;;;;;5026864;28;45140;-75
2023/01/10 11:18:26;;;;;;;6.65;1.48;;;18.00;65.90;;;;;;5026772;28;45437;-75
2023/01/10 11:20:59;;;;;;;4.85;1.20;;;18.00;65.90;;;;;;5026389;28;45644;-74
2023/01/10 11:23:41;;;;;;;4.80;1.42;;;18.00;66.00;;;;;;5026387;28;45176;-75
2023/01/10 11:26:24;;;;;;;6.03;1.30;;;18.00;65.90;;;;;;5026418;28;45178;-74
2023/01/10 11:28:52;;;;;;;4.60;1.38;;;18.00;66.00;;;;;;5026732;28;45410;-74
2023/01/10 11:31:27;;;;;;;3.35;1.10;;;18.00;65.90;;;;;;5026778;28;45466;-74
2023/01/10 11:33:55;;;;;;;3.42;1.05;;;18.00;66.00;;;;;;5026198;28;45276;-74
2023/01/10 11:36:22;;;;;;;5.38;1.35;;;18.00;66.00;;;;;;5026171;28;45278;-74
2023/01/10 11:39:00;;;;;;;5.28;1.65;;;18.00;66.10;;;;;;5026304;28;45517;-74
2023/01/10 11:41:33;;;;;;;5.68;1.60;;;18.00;65.90;;;;;;5026295;28;46598;-74
2023/01/10 11:44:17;;;;;;;5.53;1.00;;;18.10;66.20;;;;;;5026686;28;45286;-74
2023/01/10 11:46:45;;;;;;;6.88;1.10;;;18.00;66.10;;;;;;5028493;28;45236;-74
2023/01/10 11:49:18;;;;;;;5.75;1.85;;;18.00;66.20;;;;;;5026746;28;45101;-74
2023/01/10 11:51:49;;;;;;;5.03;1.40;;;18.00;66.20;;;;;;5026191;28;48518;-74
2023/01/10 11:54:20;;;;;;;5.90;1.15;;;18.10;66.30;;;;;;5025638;28;45216;-74
2023/01/10 11:56:57;;;;;;;2.00;0.75;;;18.10;66.40;;;;;;5025982;28;45214;-74
2023/01/10 11:59:25;;;;;;;5.22;1.30;;;18.00;66.20;;;;;;5026670;28;45214;-74
2023/01/10 12:01:57;;;;;;;2.63;1.00;;;18.00;66.30;;;;;;5025915;28;45370;-75
2023/01/10 12:04:26;;;;;;;3.40;1.10;;;18.10;66.40;;;;;;5026319;28;45485;-75
2023/01/10 12:06:57;;;;;;;4.45;1.30;;;18.10;66.30;;;;;;5026050;28;45346;-75
2023/01/10 12:09:35;;;;;;;6.28;1.10;;;18.10;66.30;;;;;;5026160;28;45368;-74
2023/01/10 12:12:06;;;;;;;2.85;1.08;;;18.10;66.10;;;;;;5025828;28;45727;-74
2023/01/10 12:14:33;;;;;;;1.80;0.90;;;18.10;66.30;;;;;;5026206;28;45165;-74
2023/01/10 12:17:01;;;;;;;2.85;1.10;;;18.10;66.30;;;;;;5025877;28;45352;-74
2023/01/10 12:19:28;;;;;;;4.60;1.30;;;18.10;66.30;;;;;;5026079;28;45149;-74
2023/01/10 12:21:59;;;;;;;7.28;1.80;;;18.10;66.40;;;;;;5025447;28;48806;-75
2023/01/10 12:24:29;;;;;;;3.50;0.90;;;18.10;66.20;;;;;;5025659;28;45153;-75
2023/01/10 12:26:57;;;;;;;2.70;1.20;;;18.10;66.20;;;;;;5025981;28;45227;-75
2023/01/10 12:32:56;;;;;;;3.47;1.00;;;18.10;66.30;;;;;;5022638;28;45772;-75
2023/01/10 12:35:27;;;;;;;4.45;1.45;;;18.10;65.80;;;;;;5025780;28;45138;-75
2023/01/10 12:38:01;;;;;;;3.88;1.08;;;18.10;65.40;;;;;;5027628;28;45375;-74
2023/01/10 12:40:38;;;;;;;3.03;0.85;;;18.10;65.50;;;;;;5025978;28;45148;-75
2023/01/10 12:49:30;;;;;;;4.95;1.35;;;18.10;65.90;;;;;;5022524;28;45164;-75
2023/01/10 12:52:01;;;;;;;5.25;1.42;;;18.10;65.90;;;;;;5025718;28;45145;-75
2023/01/10 12:54:30;;;;;;;4.30;1.10;;;18.00;65.70;;;;;;5025446;28;46305;-75
2023/01/10 12:57:00;;;;;;;3.08;1.02;;;18.10;65.90;;;;;;5025252;28;45193;-75
2023/01/10 12:59:36;;;;;;;2.60;1.05;;;18.10;65.90;;;;;;5025621;28;45236;-74
2023/01/10 13:02:04;;;;;;;3.45;1.02;;;18.10;65.80;;;;;;5025867;28;45378;-75
2023/01/10 13:04:35;;;;;;;4.80;0.88;;;18.10;65.80;;;;;;5025308;28;47987;-75
2023/01/10 13:07:02;;;;;;;2.08;1.00;;;18.10;65.90;;;;;;5027888;28;46278;-75
2023/01/10 13:09:30;;;;;;;4.38;1.20;;;18.10;66.00;;;;;;5028778;28;45136;-75
2023/01/10 13:12:13;;;;;;;3.13;1.10;;;18.10;66.00;;;;;;5028691;28;45437;-75
2023/01/10 13:14:46;;;;;;;3.83;1.05;;;18.10;65.90;;;;;;5028429;28;45367;-75
2023/01/10 13:17:28;;;;;;;3.88;1.38;;;18.10;65.90;;;;;;5028111;28;45397;-75
2023/01/10 13:20:28;;;;;;;4.35;0.90;;;18.10;65.90;;;;;;5028731;28;45128;-74
2023/01/10 13:22:57;;;;;;;4.55;1.10;;;18.10;65.80;;;;;;5028422;28;45442;-74
2023/01/10 13:25:27;;;;;;;5.05;0.95;;;18.10;65.70;;;;;;5027994;28;46301;-74
2023/01/10 13:27:57;;;;;;;2.50;1.10;;;18.10;65.80;;;;;;5028127;28;45648;-74
2023/01/10 13:30:31;;;;;;;5.82;1.10;;;18.10;65.90;;;;;;5030754;28;45226;-74
2023/01/10 13:33:04;;;;;;;4.07;1.25;;;18.10;65.80;;;;;;5028784;28;45449;-74
2023/01/10 13:35:40;;;;;;;3.40;1.10;;;18.10;65.80;;;;;;5025527;28;45317;-75
2023/01/10 13:38:17;;;;;;;3.30;1.05;;;18.10;65.90;;;;;;5027802;28;45231;-74
2023/01/10 13:40:56;;;;;;;2.30;0.90;;;18.10;65.80;;;;;;5028352;28;45191;-74
2023/01/10 13:43:33;;;;;;;3.38;1.00;;;18.10;65.90;;;;;;5028464;28;45120;-75
2023/01/10 13:49:41;;;;;;;4.57;1.02;;;18.10;65.20;;;;;;5024966;28;45157;-75
2023/01/10 13:52:36;;;;;;;3.75;1.00;;;18.10;65.70;;;;;;5028089;28;45144;-75
2023/01/10 13:55:27;;;;;;;5.03;1.30;;;18.10;66.00;;;;;;5028508;28;45061;-75
2023/01/10 13:57:56;;;;;;;2.83;1.05;;;18.10;66.00;;;;;;5027627;28;46965;-74
2023/01/10 14:06:54;;;;;;;3.92;0.90;;;18.10;66.10;;;;;;5024915;28;45154;-74
2023/01/10 14:09:38;;;;;;;3.05;1.17;;;18.00;65.90;;;;;;5027930;28;47417;-75
2023/01/10 14:12:08;;;;;;;2.10;0.80;;;18.00;66.20;;;;;;5027811;28;45233;-74
2023/01/10 14:14:39;;;;;;;3.33;0.95;;;18.00;66.20;;;;;;5027527;28;45071;-75
2023/01/10 14:17:21;;;;;;;1.80;0.90;;;18.00;66.10;;;;;;5027173;28;45381;-75
2023/01/10 14:19:57;;;;;;;3.22;0.90;;;18.00;66.20;;;;;;5027646;28;47314;-75
2023/01/10 14:22:29;;;;;;;3.90;0.98;;;18.00;66.20;;;;;;5029750;28;45128;-74
2023/01/10 14:24:59;;;;;;;3.90;1.15;;;18.00;66.00;;;;;;5027641;28;45282;-75
2023/01/10 14:27:41;;;;;;;2.60;1.08;;;18.10;66.10;;;;;;5027569;28;45565;-75